createdAt,value
2019-04-12T00:00:16.930Z,2.87
2019-04-12T00:01:16.797Z,2.87
2019-04-12T00:02:16.665Z,2.89
2019-04-12T00:03:16.535Z,2.92
2019-04-12T00:04:16.403Z,2.91
2019-04-12T00:05:16.275Z,2.89
2019-04-12T00:06:16.141Z,2.89
2019-04-12T00:07:16.014Z,2.88
2019-04-12T00:08:15.877Z,2.81
2019-04-12T00:09:15.748Z,2.82
2019-04-12T00:10:15.618Z,2.77
2019-04-12T00:11:15.484Z,2.82
2019-04-12T00:12:15.357Z,2.84
2019-04-12T00:13:15.224Z,2.79
2019-04-12T00:14:15.092Z,2.82
2019-04-12T00:15:14.959Z,2.84
2019-04-12T00:16:14.952Z,2.76
2019-04-12T00:17:14.699Z,2.81
2019-04-12T00:18:14.921Z,2.79
2019-04-12T00:19:14.481Z,2.87
2019-04-12T00:20:14.398Z,2.79
2019-04-12T00:21:15.500Z,2.70
2019-04-12T00:22:16.053Z,2.81
2019-04-12T00:23:16.128Z,2.67
2019-04-12T00:24:14.005Z,2.79
2019-04-12T00:25:14.980Z,2.81
2019-04-12T00:26:15.834Z,2.74
2019-04-12T00:27:13.388Z,2.79
2019-04-12T00:28:13.256Z,2.74
2019-04-12T00:29:13.126Z,2.70
2019-04-12T00:30:12.997Z,2.85
2019-04-12T00:31:12.864Z,2.77
2019-04-12T00:32:12.749Z,2.79
2019-04-12T00:33:12.603Z,2.82
2019-04-12T00:34:12.471Z,2.77
2019-04-12T00:35:12.337Z,2.76
2019-04-12T00:36:12.206Z,2.69
2019-04-12T00:37:12.077Z,2.76
2019-04-12T00:38:11.947Z,2.76
2019-04-12T00:39:11.819Z,2.82
2019-04-12T00:40:11.684Z,2.82
2019-04-12T00:41:11.559Z,2.84
2019-04-12T00:42:11.419Z,2.79
2019-04-12T00:43:11.287Z,2.82
2019-04-12T00:44:11.160Z,2.81
2019-04-12T00:45:11.028Z,2.74
2019-04-12T00:46:10.902Z,2.81
2019-04-12T00:47:10.765Z,2.79
2019-04-12T00:48:10.978Z,2.79
2019-04-12T00:49:10.501Z,2.74
2019-04-12T00:50:12.043Z,2.74
2019-04-12T00:51:12.177Z,2.64
2019-04-12T00:52:13.823Z,2.64
2019-04-12T00:53:13.267Z,2.55
2019-04-12T00:54:09.846Z,2.67
2019-04-12T00:55:09.715Z,2.66
2019-04-12T00:56:09.583Z,2.67
2019-04-12T00:57:09.453Z,2.59
2019-04-12T00:58:09.322Z,2.61
2019-04-12T00:59:09.189Z,2.67
2019-04-12T01:00:09.063Z,2.63
2019-04-12T01:01:08.926Z,2.55
2019-04-12T01:02:08.795Z,2.67
2019-04-12T01:03:08.664Z,2.59
2019-04-12T01:04:08.534Z,2.55
2019-04-12T01:05:08.403Z,2.64
2019-04-12T01:06:08.272Z,2.61
2019-04-12T01:07:08.140Z,2.67
2019-04-12T01:08:08.007Z,2.63
2019-04-12T01:09:07.880Z,2.67
2019-04-12T01:10:07.744Z,2.71
2019-04-12T01:11:07.616Z,2.69
2019-04-12T01:12:07.485Z,2.59
2019-04-12T01:13:07.379Z,2.70
2019-04-12T01:14:07.219Z,2.70
2019-04-12T01:15:07.092Z,2.71
2019-04-12T01:16:06.959Z,2.58
2019-04-12T01:17:06.829Z,2.66
2019-04-12T01:18:06.697Z,2.69
2019-04-12T01:19:06.564Z,2.66
2019-04-12T01:20:06.432Z,2.67
2019-04-12T01:21:06.968Z,2.58
2019-04-12T01:22:08.912Z,2.53
2019-04-12T01:23:09.685Z,2.59
2019-04-12T01:24:08.211Z,2.59
2019-04-12T01:25:05.777Z,2.58
2019-04-12T01:26:05.645Z,2.66
2019-04-12T01:27:05.512Z,2.66
2019-04-12T01:28:05.389Z,2.63
2019-04-12T01:29:05.251Z,2.64
2019-04-12T01:30:05.123Z,2.59
2019-04-12T01:31:05.035Z,2.59
2019-04-12T01:32:04.857Z,2.64
2019-04-12T01:33:04.731Z,2.58
2019-04-12T01:34:04.592Z,2.66
2019-04-12T01:35:04.460Z,2.61
2019-04-12T01:36:04.332Z,2.59
2019-04-12T01:37:04.201Z,2.61
2019-04-12T01:38:04.069Z,2.64
2019-04-12T01:39:03.937Z,2.56
2019-04-12T01:40:03.808Z,2.55
2019-04-12T01:41:03.677Z,2.48
2019-04-12T01:42:03.542Z,2.52
2019-04-12T01:43:03.412Z,2.53
2019-04-12T01:44:03.278Z,2.56
2019-04-12T01:45:03.151Z,2.52
2019-04-12T01:46:03.018Z,2.61
2019-04-12T01:47:02.886Z,2.55
2019-04-12T01:48:02.753Z,2.61
2019-04-12T01:49:02.625Z,2.58
2019-04-12T01:50:02.493Z,2.63
2019-04-12T01:51:02.379Z,2.69
2019-04-12T01:52:02.233Z,2.58
2019-04-12T01:53:02.098Z,2.61
2019-04-12T01:54:01.968Z,2.55
2019-04-12T01:55:08.897Z,2.49
2019-04-12T01:56:01.707Z,2.52
2019-04-12T01:57:01.574Z,2.44
2019-04-12T01:58:01.442Z,2.53
2019-04-12T01:59:01.311Z,2.45
2019-04-12T02:00:01.180Z,2.49
2019-04-12T02:01:01.049Z,2.52
2019-04-12T02:02:00.917Z,2.48
2019-04-12T02:03:00.784Z,2.49
2019-04-12T02:04:00.654Z,2.55
2019-04-12T02:05:00.520Z,2.52
2019-04-12T02:06:00.394Z,2.55
2019-04-12T02:07:00.259Z,2.51
2019-04-12T02:08:00.125Z,2.55
2019-04-12T02:08:59.996Z,2.58
2019-04-12T02:09:59.864Z,2.46
2019-04-12T02:10:59.735Z,2.55
2019-04-12T02:11:59.603Z,2.59
2019-04-12T02:12:59.471Z,2.55
2019-04-12T02:13:59.340Z,2.49
2019-04-12T02:14:59.208Z,2.52
2019-04-12T02:15:59.079Z,2.55
2019-04-12T02:16:58.944Z,2.49
2019-04-12T02:17:58.815Z,2.52
2019-04-12T02:18:58.682Z,2.49
2019-04-12T02:19:58.554Z,2.51
2019-04-12T02:20:58.422Z,2.49
2019-04-12T02:21:58.290Z,2.45
2019-04-12T02:22:58.157Z,2.48
2019-04-12T02:23:58.025Z,2.48
2019-04-12T02:24:57.917Z,2.48
2019-04-12T02:25:57.764Z,2.48
2019-04-12T02:26:57.631Z,2.51
2019-04-12T02:27:57.500Z,2.46
2019-04-12T02:28:57.371Z,2.38
2019-04-12T02:29:57.241Z,2.40
2019-04-12T02:30:57.105Z,2.38
2019-04-12T02:31:56.975Z,2.40
2019-04-12T02:32:56.844Z,2.45
2019-04-12T02:33:56.714Z,2.40
2019-04-12T02:34:56.589Z,2.44
2019-04-12T02:35:56.452Z,2.34
2019-04-12T02:36:56.326Z,2.46
2019-04-12T02:37:56.190Z,2.44
2019-04-12T02:38:56.058Z,2.37
2019-04-12T02:39:55.929Z,2.38
2019-04-12T02:40:55.798Z,2.48
2019-04-12T02:41:55.664Z,2.38
2019-04-12T02:42:55.534Z,2.30
2019-04-12T02:43:55.403Z,2.28
2019-04-12T02:44:55.273Z,2.30
2019-04-12T02:45:55.144Z,2.46
2019-04-12T02:46:55.007Z,2.46
2019-04-12T02:47:54.875Z,2.38
2019-04-12T02:48:54.755Z,2.41
2019-04-12T02:49:54.613Z,2.40
2019-04-12T02:50:54.485Z,2.38
2019-04-12T02:51:54.354Z,2.37
2019-04-12T02:52:54.222Z,2.40
2019-04-12T02:53:54.091Z,2.40
2019-04-12T02:54:53.970Z,2.40
2019-04-12T02:55:53.825Z,2.30
2019-04-12T02:56:53.695Z,2.28
2019-04-12T02:57:53.565Z,2.30
2019-04-12T02:58:53.441Z,2.27
2019-04-12T02:59:53.301Z,2.38
2019-04-12T03:00:53.171Z,2.45
2019-04-12T03:01:53.035Z,2.41
2019-04-12T03:02:52.905Z,2.33
2019-04-12T03:03:52.774Z,2.28
2019-04-12T03:04:52.641Z,2.35
2019-04-12T03:05:52.522Z,2.27
2019-04-12T03:06:52.388Z,2.33
2019-04-12T03:07:52.248Z,2.30
2019-04-12T03:08:52.130Z,2.31
2019-04-12T03:09:51.994Z,2.41
2019-04-12T03:10:51.857Z,2.37
2019-04-12T03:11:51.722Z,2.30
2019-04-12T03:12:51.592Z,2.33
2019-04-12T03:13:51.460Z,2.22
2019-04-12T03:14:51.334Z,2.13
2019-04-12T03:15:51.195Z,2.08
2019-04-12T03:16:51.073Z,2.13
2019-04-12T03:17:50.934Z,2.15
2019-04-12T03:18:50.802Z,2.13
2019-04-12T03:19:50.671Z,2.15
2019-04-12T03:20:50.541Z,2.09
2019-04-12T03:21:50.408Z,2.12
2019-04-12T03:22:50.286Z,2.08
2019-04-12T03:23:50.150Z,2.13
2019-04-12T03:24:50.013Z,1.98
2019-04-12T03:25:53.863Z,1.97
2019-04-12T03:26:49.762Z,2.10
2019-04-12T03:27:49.623Z,2.13
2019-04-12T03:28:49.486Z,2.22
2019-04-12T03:29:49.355Z,2.22
2019-04-12T03:30:49.224Z,2.16
2019-04-12T03:31:49.097Z,2.20
2019-04-12T03:32:49.134Z,2.28
2019-04-12T03:33:48.831Z,2.31
2019-04-12T03:34:48.700Z,2.37
2019-04-12T03:35:48.567Z,2.37
2019-04-12T03:36:48.446Z,2.31
2019-04-12T03:37:48.306Z,2.28
2019-04-12T03:38:48.172Z,2.44
2019-04-12T03:39:48.042Z,2.37
2019-04-12T03:40:47.911Z,2.41
2019-04-12T03:41:47.780Z,2.40
2019-04-12T03:42:47.649Z,2.35
2019-04-12T03:43:47.515Z,2.28
2019-04-12T03:44:47.393Z,2.30
2019-04-12T03:45:47.255Z,2.33
2019-04-12T03:46:47.121Z,2.45
2019-04-12T03:47:46.990Z,2.35
2019-04-12T03:48:46.862Z,2.35
2019-04-12T03:49:46.728Z,2.30
2019-04-12T03:50:46.596Z,2.35
2019-04-12T03:51:46.464Z,2.28
2019-04-12T03:52:46.335Z,2.31
2019-04-12T03:53:46.203Z,2.31
2019-04-12T03:54:46.070Z,2.33
2019-04-12T03:55:45.939Z,2.33
2019-04-12T03:56:45.807Z,2.31
2019-04-12T03:57:45.683Z,2.31
2019-04-12T03:58:45.568Z,2.26
2019-04-12T03:59:45.413Z,2.30
2019-04-12T04:00:45.297Z,2.26
2019-04-12T04:01:45.153Z,2.27
2019-04-12T04:02:45.018Z,2.28
2019-04-12T04:03:44.887Z,2.27
2019-04-12T04:04:44.755Z,2.35
2019-04-12T04:05:44.627Z,2.23
2019-04-12T04:06:44.493Z,2.23
2019-04-12T04:07:44.361Z,2.27
2019-04-12T04:08:44.230Z,2.23
2019-04-12T04:09:44.096Z,2.17
2019-04-12T04:10:43.970Z,2.30
2019-04-12T04:11:43.835Z,2.31
2019-04-12T04:12:43.703Z,2.31
2019-04-12T04:13:43.572Z,2.30
2019-04-12T04:14:43.439Z,2.28
2019-04-12T04:15:43.309Z,2.19
2019-04-12T04:16:43.178Z,2.26
2019-04-12T04:17:43.050Z,2.26
2019-04-12T04:18:42.914Z,2.31
2019-04-12T04:19:42.780Z,2.23
2019-04-12T04:20:42.650Z,2.33
2019-04-12T04:21:42.518Z,2.28
2019-04-12T04:22:42.386Z,2.34
2019-04-12T04:23:42.257Z,2.22
2019-04-12T04:24:42.131Z,2.31
2019-04-12T04:25:41.991Z,2.31
2019-04-12T04:26:41.862Z,2.19
2019-04-12T04:27:41.743Z,2.27
2019-04-12T04:28:41.598Z,2.27
2019-04-12T04:29:41.467Z,2.22
2019-04-12T04:30:41.334Z,2.26
2019-04-12T04:31:41.203Z,2.30
2019-04-12T04:32:41.072Z,2.27
2019-04-12T04:33:40.938Z,2.23
2019-04-12T04:34:40.808Z,2.15
2019-04-12T04:35:40.680Z,2.16
2019-04-12T04:36:40.544Z,2.13
2019-04-12T04:37:40.416Z,2.12
2019-04-12T04:38:40.280Z,2.15
2019-04-12T04:39:40.147Z,2.20
2019-04-12T04:40:40.018Z,2.27
2019-04-12T04:41:39.889Z,2.13
2019-04-12T04:42:39.754Z,2.27
2019-04-12T04:43:39.629Z,2.31
2019-04-12T04:44:39.631Z,2.22
2019-04-12T04:45:39.362Z,2.28
2019-04-12T04:46:39.228Z,2.23
2019-04-12T04:47:39.100Z,2.31
2019-04-12T04:48:38.968Z,2.10
2019-04-12T04:49:38.833Z,2.16
2019-04-12T04:50:38.701Z,2.20
2019-04-12T04:51:38.568Z,2.10
2019-04-12T04:52:38.437Z,2.26
2019-04-12T04:53:38.305Z,2.16
2019-04-12T04:54:38.177Z,2.19
2019-04-12T04:55:38.043Z,2.17
2019-04-12T04:56:37.911Z,2.17
2019-04-12T04:57:37.780Z,2.22
2019-04-12T04:58:37.647Z,2.12
2019-04-12T04:59:37.515Z,2.12
2019-04-12T05:00:37.383Z,2.10
2019-04-12T05:01:37.256Z,2.15
2019-04-12T05:02:37.143Z,2.16
2019-04-12T05:03:36.988Z,2.12
2019-04-12T05:04:36.893Z,2.16
2019-04-12T05:05:36.725Z,2.12
2019-04-12T05:06:36.594Z,2.15
2019-04-12T05:07:36.483Z,2.19
2019-04-12T05:08:36.331Z,2.13
2019-04-12T05:09:36.199Z,2.09
2019-04-12T05:10:36.067Z,2.08
2019-04-12T05:11:35.936Z,2.09
2019-04-12T05:12:35.804Z,1.99
2019-04-12T05:13:35.672Z,2.12
2019-04-12T05:14:35.540Z,2.08
2019-04-12T05:15:35.409Z,2.08
2019-04-12T05:16:35.274Z,2.10
2019-04-12T05:17:35.144Z,2.08
2019-04-12T05:18:35.011Z,2.13
2019-04-12T05:19:34.892Z,2.09
2019-04-12T05:20:34.815Z,2.10
2019-04-12T05:21:34.635Z,2.09
2019-04-12T05:22:34.485Z,2.10
2019-04-12T05:23:34.354Z,2.10
2019-04-12T05:24:34.221Z,2.12
2019-04-12T05:25:34.089Z,2.12
2019-04-12T05:26:44.903Z,2.12
2019-04-12T05:27:33.826Z,2.12
2019-04-12T05:28:33.696Z,2.13
2019-04-12T05:29:33.578Z,2.16
2019-04-12T05:30:33.431Z,2.15
2019-04-12T05:31:33.307Z,2.13
2019-04-12T05:32:33.208Z,2.04
2019-04-12T05:33:33.034Z,1.98
2019-04-12T05:34:32.903Z,1.94
2019-04-12T05:35:32.778Z,1.98
2019-04-12T05:36:32.664Z,2.01
2019-04-12T05:37:32.508Z,2.12
2019-04-12T05:38:32.377Z,2.10
2019-04-12T05:39:32.246Z,2.13
2019-04-12T05:40:32.112Z,2.12
2019-04-12T05:41:31.982Z,2.19
2019-04-12T05:42:31.851Z,2.13
2019-04-12T05:43:31.718Z,2.13
2019-04-12T05:44:31.587Z,2.17
2019-04-12T05:45:31.455Z,2.15
2019-04-12T05:46:31.320Z,2.13
2019-04-12T05:47:31.189Z,2.12
2019-04-12T05:48:31.057Z,2.23
2019-04-12T05:49:30.931Z,2.26
2019-04-12T05:50:30.793Z,2.30
2019-04-12T05:51:30.663Z,2.12
2019-04-12T05:52:30.530Z,2.10
2019-04-12T05:53:31.356Z,2.12
2019-04-12T05:54:30.266Z,2.19
2019-04-12T05:55:30.136Z,2.12
2019-04-12T05:56:30.008Z,2.19
2019-04-12T05:57:29.873Z,2.17
2019-04-12T05:58:29.739Z,2.09
2019-04-12T05:59:29.608Z,2.10
2019-04-12T06:00:29.477Z,2.06
2019-04-12T06:01:29.345Z,2.12
2019-04-12T06:02:29.213Z,2.19
2019-04-12T06:03:29.083Z,2.27
2019-04-12T06:04:29.209Z,2.06
2019-04-12T06:05:31.087Z,2.30
2019-04-12T06:06:31.988Z,2.19
2019-04-12T06:07:28.557Z,2.17
2019-04-12T06:08:28.423Z,2.13
2019-04-12T06:09:28.291Z,2.10
2019-04-12T06:10:28.159Z,2.12
2019-04-12T06:11:28.031Z,2.19
2019-04-12T06:12:27.896Z,2.26
2019-04-12T06:13:27.767Z,2.27
2019-04-12T06:14:27.632Z,2.31
2019-04-12T06:15:27.500Z,2.17
2019-04-12T06:16:27.370Z,2.28
2019-04-12T06:17:27.254Z,2.19
2019-04-12T06:18:27.109Z,2.33
2019-04-12T06:19:26.975Z,2.34
2019-04-12T06:20:26.843Z,2.19
2019-04-12T06:21:26.733Z,2.23
2019-04-12T06:22:26.580Z,2.23
2019-04-12T06:23:26.450Z,2.22
2019-04-12T06:24:26.317Z,2.06
2019-04-12T06:25:26.333Z,2.22
2019-04-12T06:26:26.053Z,2.22
2019-04-12T06:27:25.925Z,2.22
2019-04-12T06:28:25.791Z,2.27
2019-04-12T06:29:25.660Z,2.20
2019-04-12T06:30:25.528Z,2.28
2019-04-12T06:31:25.397Z,2.12
2019-04-12T06:32:25.263Z,2.26
2019-04-12T06:33:25.133Z,2.22
2019-04-12T06:34:24.999Z,2.26
2019-04-12T06:35:24.871Z,2.19
2019-04-12T06:36:24.739Z,2.17
2019-04-12T06:37:24.609Z,2.28
2019-04-12T06:38:24.472Z,2.27
2019-04-12T06:39:24.344Z,2.27
2019-04-12T06:40:24.211Z,2.27
2019-04-12T06:41:24.079Z,2.22
2019-04-12T06:42:23.951Z,2.15
2019-04-12T06:43:23.817Z,2.17
2019-04-12T06:44:23.690Z,2.23
2019-04-12T06:45:23.557Z,2.17
2019-04-12T06:46:23.422Z,2.13
2019-04-12T06:47:25.888Z,2.27
2019-04-12T06:48:23.160Z,2.12
2019-04-12T06:49:23.026Z,2.22
2019-04-12T06:50:22.896Z,2.22
2019-04-12T06:51:22.766Z,2.22
2019-04-12T06:52:22.633Z,2.31
2019-04-12T06:53:22.503Z,2.26
2019-04-12T06:54:22.372Z,2.23
2019-04-12T06:55:22.239Z,2.28
2019-04-12T06:56:22.110Z,2.26
2019-04-12T06:57:23.556Z,2.23
2019-04-12T06:58:21.843Z,2.17
2019-04-12T06:59:21.712Z,2.20
2019-04-12T07:00:21.581Z,2.22
2019-04-12T07:01:21.449Z,2.12
2019-04-12T07:02:21.317Z,2.17
2019-04-12T07:03:21.192Z,2.26
2019-04-12T07:04:21.056Z,2.30
2019-04-12T07:05:20.926Z,2.26
2019-04-12T07:06:20.795Z,2.20
2019-04-12T07:07:20.659Z,2.17
2019-04-12T07:08:20.528Z,2.17
2019-04-12T07:09:20.397Z,2.23
2019-04-12T07:10:20.265Z,2.12
2019-04-12T07:11:20.133Z,2.23
2019-04-12T07:12:20.003Z,2.22
2019-04-12T07:13:19.871Z,2.13
2019-04-12T07:14:19.738Z,2.16
2019-04-12T07:15:19.606Z,2.23
2019-04-12T07:16:19.477Z,2.22
2019-04-12T07:17:19.343Z,2.28
2019-04-12T07:18:19.211Z,2.23
2019-04-12T07:19:19.089Z,2.31
2019-04-12T07:20:18.948Z,2.26
2019-04-12T07:21:18.819Z,2.30
2019-04-12T07:22:18.685Z,2.26
2019-04-12T07:23:18.554Z,2.22
2019-04-12T07:24:18.420Z,2.23
2019-04-12T07:25:18.293Z,2.19
2019-04-12T07:26:18.163Z,2.28
2019-04-12T07:27:18.025Z,2.30
2019-04-12T07:28:18.032Z,2.23
2019-04-12T07:29:17.766Z,2.27
2019-04-12T07:30:17.643Z,2.20
2019-04-12T07:31:17.502Z,2.31
2019-04-12T07:32:17.370Z,2.28
2019-04-12T07:33:17.239Z,2.30
2019-04-12T07:34:17.105Z,2.17
2019-04-12T07:35:16.983Z,2.26
2019-04-12T07:36:16.845Z,2.23
2019-04-12T07:37:16.711Z,2.17
2019-04-12T07:38:16.578Z,2.28
2019-04-12T07:39:16.449Z,2.23
2019-04-12T07:40:16.316Z,2.20
2019-04-12T07:41:16.188Z,2.26
2019-04-12T07:42:16.053Z,2.26
2019-04-12T07:43:15.920Z,2.26
2019-04-12T07:44:15.789Z,2.31
2019-04-12T07:45:15.658Z,2.26
2019-04-12T07:46:15.525Z,2.28
2019-04-12T07:47:15.393Z,2.28
2019-04-12T07:48:15.263Z,2.31
2019-04-12T07:49:15.131Z,2.20
2019-04-12T07:50:15.001Z,2.28
2019-04-12T07:51:14.868Z,2.34
2019-04-12T07:52:14.736Z,2.30
2019-04-12T07:53:14.605Z,2.27
2019-04-12T07:54:14.472Z,2.20
2019-04-12T07:55:14.344Z,2.26
2019-04-12T07:56:14.215Z,2.28
2019-04-12T07:57:14.080Z,2.30
2019-04-12T07:58:13.951Z,2.26
2019-04-12T07:59:13.814Z,2.27
2019-04-12T08:00:13.692Z,2.41
2019-04-12T08:01:13.552Z,2.41
2019-04-12T08:02:13.423Z,2.37
2019-04-12T08:03:13.304Z,2.31
2019-04-12T08:04:13.162Z,2.37
2019-04-12T08:05:13.025Z,2.27
2019-04-12T08:06:12.894Z,2.33
2019-04-12T08:07:12.764Z,2.34
2019-04-12T08:08:12.631Z,2.26
2019-04-12T08:09:12.506Z,2.33
2019-04-12T08:10:12.368Z,2.35
2019-04-12T08:11:12.246Z,2.30
2019-04-12T08:12:12.111Z,2.35
2019-04-12T08:13:11.976Z,2.35
2019-04-12T08:14:11.853Z,2.34
2019-04-12T08:15:13.616Z,2.40
2019-04-12T08:16:11.586Z,2.41
2019-04-12T08:17:11.717Z,2.37
2019-04-12T08:18:11.319Z,2.31
2019-04-12T08:19:11.191Z,2.30
2019-04-12T08:20:11.058Z,2.31
2019-04-12T08:21:10.924Z,2.33
2019-04-12T08:22:10.792Z,2.41
2019-04-12T08:23:10.666Z,2.40
2019-04-12T08:24:10.532Z,2.41
2019-04-12T08:25:10.399Z,2.38
2019-04-12T08:26:10.269Z,2.48
2019-04-12T08:27:10.246Z,2.55
2019-04-12T08:28:10.006Z,2.52
2019-04-12T08:29:09.920Z,2.46
2019-04-12T08:30:10.084Z,2.44
2019-04-12T08:31:09.610Z,2.27
2019-04-12T08:32:09.476Z,2.30
2019-04-12T08:33:09.348Z,2.28
2019-04-12T08:34:09.215Z,2.28
2019-04-12T08:35:11.552Z,2.28
2019-04-12T08:36:08.953Z,2.27
2019-04-12T08:37:08.821Z,2.12
2019-04-12T08:38:08.690Z,2.13
2019-04-12T08:39:08.557Z,2.17
2019-04-12T08:40:08.427Z,2.10
2019-04-12T08:41:10.382Z,2.16
2019-04-12T08:42:08.930Z,2.31
2019-04-12T08:43:08.033Z,2.16
2019-04-12T08:44:07.914Z,2.26
2019-04-12T08:45:07.770Z,2.31
2019-04-12T08:46:07.637Z,2.26
2019-04-12T08:47:07.519Z,2.17
2019-04-12T08:48:07.380Z,2.09
2019-04-12T08:49:07.275Z,2.12
2019-04-12T08:50:07.157Z,2.27
2019-04-12T08:51:07.000Z,2.12
2019-04-12T08:52:06.850Z,2.23
2019-04-12T08:53:06.733Z,2.28
2019-04-12T08:54:06.591Z,2.31
2019-04-12T08:55:06.478Z,2.48
2019-04-12T08:56:06.336Z,2.44
2019-04-12T08:57:06.212Z,2.40
2019-04-12T08:58:11.072Z,2.41
2019-04-12T08:59:05.932Z,2.35
2019-04-12T09:00:05.849Z,2.46
2019-04-12T09:01:05.681Z,2.52
2019-04-12T09:02:05.586Z,2.53
2019-04-12T09:03:05.406Z,2.56
2019-04-12T09:04:05.321Z,2.55
2019-04-12T09:05:05.138Z,2.49
2019-04-12T09:06:05.029Z,2.51
2019-04-12T09:07:04.937Z,2.51
2019-04-12T09:08:04.826Z,2.49
2019-04-12T09:09:04.692Z,2.46
2019-04-12T09:10:04.620Z,2.51
2019-04-12T09:11:04.418Z,2.52
2019-04-12T09:12:04.231Z,2.48
2019-04-12T09:13:04.088Z,2.51
2019-04-12T09:14:03.959Z,2.41
2019-04-12T09:15:03.864Z,2.41
2019-04-12T09:16:03.755Z,2.38
2019-04-12T09:17:03.671Z,2.31
2019-04-12T09:18:03.461Z,2.31
2019-04-12T09:19:03.331Z,2.27
2019-04-12T09:20:03.198Z,2.16
2019-04-12T09:21:03.052Z,2.33
2019-04-12T09:22:03.003Z,2.35
2019-04-12T09:23:02.869Z,2.34
2019-04-12T09:24:02.703Z,2.48
2019-04-12T09:25:02.521Z,2.56
2019-04-12T09:26:02.462Z,2.48
2019-04-12T09:27:02.271Z,2.44
2019-04-12T09:28:02.113Z,2.41
2019-04-12T09:29:02.018Z,2.44
2019-04-12T09:30:01.912Z,2.41
2019-04-12T09:31:01.735Z,2.38
2019-04-12T09:32:01.675Z,2.41
2019-04-12T09:33:01.530Z,2.48
2019-04-12T09:34:01.337Z,2.45
2019-04-12T09:35:01.190Z,2.51
2019-04-12T09:36:01.059Z,2.61
2019-04-12T09:37:00.926Z,2.55
2019-04-12T09:38:00.795Z,2.58
2019-04-12T09:39:00.663Z,2.56
2019-04-12T09:40:00.533Z,2.59
2019-04-12T09:41:00.401Z,2.69
2019-04-12T09:42:00.270Z,2.73
2019-04-12T09:43:00.143Z,2.77
2019-04-12T09:44:00.007Z,2.71
2019-04-12T09:44:59.877Z,2.67
2019-04-12T09:45:59.742Z,2.76
2019-04-12T09:46:59.617Z,2.74
2019-04-12T09:47:59.480Z,2.73
2019-04-12T09:48:59.352Z,2.70
2019-04-12T09:49:59.222Z,2.70
2019-04-12T09:50:59.101Z,2.58
2019-04-12T09:51:58.957Z,2.69
2019-04-12T09:52:58.829Z,2.67
2019-04-12T09:53:58.691Z,2.59
2019-04-12T09:54:58.563Z,2.59
2019-04-12T09:55:58.445Z,2.64
2019-04-12T09:56:58.300Z,2.58
2019-04-12T09:57:58.167Z,2.55
2019-04-12T09:58:58.038Z,2.61
2019-04-12T09:59:57.910Z,2.67
2019-04-12T10:00:57.775Z,2.63
2019-04-12T10:01:57.645Z,2.67
2019-04-12T10:02:57.510Z,2.63
2019-04-12T10:03:57.381Z,2.61
2019-04-12T10:04:57.251Z,2.64
2019-04-12T10:05:57.118Z,2.73
2019-04-12T10:06:57.307Z,2.70
2019-04-12T10:07:56.856Z,2.59
2019-04-12T10:08:56.724Z,2.61
2019-04-12T10:09:56.592Z,2.61
2019-04-12T10:10:56.465Z,2.64
2019-04-12T10:11:56.335Z,2.71
2019-04-12T10:12:56.201Z,2.79
2019-04-12T10:13:56.066Z,2.70
2019-04-12T10:14:55.977Z,2.71
2019-04-12T10:15:55.809Z,2.66
2019-04-12T10:16:55.674Z,2.58
2019-04-12T10:17:55.542Z,2.61
2019-04-12T10:18:55.412Z,2.64
2019-04-12T10:19:55.281Z,2.71
2019-04-12T10:20:55.150Z,2.81
2019-04-12T10:21:55.016Z,2.77
2019-04-12T10:22:54.887Z,2.88
2019-04-12T10:23:54.755Z,2.95
2019-04-12T10:24:54.625Z,2.95
2019-04-12T10:25:54.492Z,2.95
2019-04-12T10:26:54.362Z,3.00
2019-04-12T10:27:54.230Z,2.94
2019-04-12T10:28:54.101Z,2.97
2019-04-12T10:29:53.970Z,2.87
2019-04-12T10:30:53.842Z,2.88
2019-04-12T10:31:53.707Z,3.03
2019-04-12T10:32:53.575Z,2.92
2019-04-12T10:33:53.485Z,3.05
2019-04-12T10:34:56.130Z,3.10
2019-04-12T10:35:53.183Z,3.13
2019-04-12T10:36:53.053Z,3.18
2019-04-12T10:37:52.922Z,3.15
2019-04-12T10:38:52.790Z,3.33
2019-04-12T10:39:52.660Z,3.25
2019-04-12T10:40:52.529Z,3.30
2019-04-12T10:41:52.401Z,3.46
2019-04-12T10:42:52.279Z,3.40
2019-04-12T10:43:52.139Z,3.42
2019-04-12T10:44:52.011Z,3.57
2019-04-12T10:45:51.876Z,3.50
2019-04-12T10:46:51.744Z,3.58
2019-04-12T10:47:51.616Z,3.60
2019-04-12T10:48:51.485Z,3.62
2019-04-12T10:49:51.354Z,3.67
2019-04-12T10:50:51.223Z,3.57
2019-04-12T10:51:51.091Z,3.57
2019-04-12T10:52:50.968Z,3.62
2019-04-12T10:53:50.829Z,3.68
2019-04-12T10:54:50.700Z,3.70
2019-04-12T10:55:50.569Z,3.75
2019-04-12T10:56:50.441Z,3.79
2019-04-12T10:57:50.309Z,3.78
2019-04-12T10:59:02.135Z,3.86
2019-04-12T10:59:50.048Z,3.86
2019-04-12T11:00:49.916Z,3.79
2019-04-12T11:01:49.787Z,3.90
2019-04-12T11:02:49.656Z,3.88
2019-04-12T11:03:49.527Z,4.00
2019-04-12T11:04:49.397Z,3.98
2019-04-12T11:05:49.265Z,3.96
2019-04-12T11:06:49.133Z,3.89
2019-04-12T11:07:49.006Z,3.89
2019-04-12T11:08:48.875Z,3.86
2019-04-12T11:09:48.741Z,3.92
2019-04-12T11:10:48.612Z,3.90
2019-04-12T11:11:48.538Z,3.92
2019-04-12T11:12:48.351Z,3.92
2019-04-12T11:13:48.220Z,3.92
2019-04-12T11:14:48.091Z,3.96
2019-04-12T11:15:47.961Z,3.90
2019-04-12T11:16:47.831Z,3.92
2019-04-12T11:17:47.700Z,4.04
2019-04-12T11:18:47.569Z,4.18
2019-04-12T11:19:47.440Z,4.15
2019-04-12T11:20:47.313Z,4.19
2019-04-12T11:21:47.177Z,4.32
2019-04-12T11:22:47.049Z,4.34
2019-04-12T11:23:46.920Z,4.26
2019-04-12T11:24:46.786Z,4.29
2019-04-12T11:25:46.659Z,4.28
2019-04-12T11:26:46.528Z,4.25
2019-04-12T11:27:46.397Z,4.33
2019-04-12T11:28:46.271Z,4.39
2019-04-12T11:29:46.138Z,4.47
2019-04-12T11:30:46.011Z,4.37
2019-04-12T11:31:45.878Z,4.47
2019-04-12T11:32:45.746Z,4.67
2019-04-12T11:33:45.614Z,4.57
2019-04-12T11:34:45.487Z,4.58
2019-04-12T11:35:45.357Z,4.54
2019-04-12T11:36:45.228Z,4.46
2019-04-12T11:37:45.097Z,4.42
2019-04-12T11:38:44.967Z,4.57
2019-04-12T11:39:44.837Z,4.46
2019-04-12T11:40:44.707Z,4.59
2019-04-12T11:41:44.577Z,4.54
2019-04-12T11:42:44.446Z,4.55
2019-04-12T11:43:44.320Z,4.58
2019-04-12T11:44:44.187Z,4.73
2019-04-12T11:45:46.250Z,4.75
2019-04-12T11:46:43.928Z,4.73
2019-04-12T11:47:43.818Z,4.92
2019-04-12T11:48:43.669Z,4.92
2019-04-12T11:49:43.543Z,4.86
2019-04-12T11:50:43.408Z,4.91
2019-04-12T11:51:43.279Z,4.96
2019-04-12T11:52:43.150Z,5.01
2019-04-12T11:53:43.017Z,4.95
2019-04-12T11:54:42.893Z,4.98
2019-04-12T11:55:42.764Z,4.89
2019-04-12T11:56:42.630Z,4.84
2019-04-12T11:57:42.500Z,4.83
2019-04-12T11:58:48.298Z,4.80
2019-04-12T11:59:42.240Z,4.77
2019-04-12T12:00:42.112Z,4.76
2019-04-12T12:01:41.984Z,4.72
2019-04-12T12:02:41.849Z,4.75
2019-04-12T12:03:41.721Z,4.64
2019-04-12T12:04:41.593Z,4.58
2019-04-12T12:05:41.462Z,4.65
2019-04-12T12:06:41.332Z,4.58
2019-04-12T12:07:49.828Z,4.67
2019-04-12T12:08:41.073Z,4.59
2019-04-12T12:09:40.943Z,4.72
2019-04-12T12:10:40.815Z,4.67
2019-04-12T12:11:40.685Z,4.76
2019-04-12T12:12:40.552Z,4.83
2019-04-12T12:13:40.420Z,4.92
2019-04-12T12:14:40.293Z,4.98
2019-04-12T12:15:40.162Z,4.98
2019-04-12T12:16:40.037Z,4.98
2019-04-12T12:17:39.902Z,4.94
2019-04-12T12:18:39.774Z,4.91
2019-04-12T12:19:39.645Z,4.86
2019-04-12T12:20:39.514Z,4.99
2019-04-12T12:21:39.385Z,4.98
2019-04-12T12:22:39.255Z,4.92
2019-04-12T12:23:39.127Z,4.89
2019-04-12T12:24:38.994Z,4.94
2019-04-12T12:25:38.865Z,4.86
2019-04-12T12:26:38.783Z,4.80
2019-04-12T12:27:38.622Z,4.91
2019-04-12T12:28:38.481Z,4.83
2019-04-12T12:29:42.770Z,4.80
2019-04-12T12:30:38.219Z,4.89
2019-04-12T12:31:38.098Z,4.98
2019-04-12T12:32:37.959Z,4.94
2019-04-12T12:33:37.834Z,4.89
2019-04-12T12:34:37.709Z,4.95
2019-04-12T12:35:37.576Z,4.89
2019-04-12T12:36:37.442Z,4.86
2019-04-12T12:37:37.315Z,4.91
2019-04-12T12:38:37.183Z,4.86
2019-04-12T12:39:37.051Z,4.86
2019-04-12T12:40:36.929Z,4.80
2019-04-12T12:41:36.795Z,4.79
2019-04-12T12:42:36.662Z,4.64
2019-04-12T12:43:36.533Z,4.79
2019-04-12T12:44:36.405Z,4.80
2019-04-12T12:45:36.274Z,4.80
2019-04-12T12:46:36.145Z,4.70
2019-04-12T12:47:36.022Z,4.88
2019-04-12T12:48:35.888Z,4.88
2019-04-12T12:49:35.758Z,4.96
2019-04-12T12:50:35.629Z,5.16
2019-04-12T12:51:35.503Z,5.19
2019-04-12T12:52:35.417Z,5.31
2019-04-12T12:53:35.242Z,5.20
2019-04-12T12:54:35.110Z,5.27
2019-04-12T12:55:34.982Z,5.27
2019-04-12T12:56:34.854Z,5.25
2019-04-12T12:57:34.723Z,5.34
2019-04-12T12:58:34.599Z,5.35
2019-04-12T12:59:34.465Z,5.22
2019-04-12T13:00:34.337Z,5.14
2019-04-12T13:01:34.208Z,4.86
2019-04-12T13:02:34.106Z,4.76
2019-04-12T13:03:33.946Z,4.75
2019-04-12T13:04:33.819Z,4.76
2019-04-12T13:05:33.689Z,4.92
2019-04-12T13:06:33.560Z,4.95
2019-04-12T13:07:33.431Z,4.92
2019-04-12T13:08:33.348Z,5.02
2019-04-12T13:09:33.174Z,5.09
2019-04-12T13:10:33.042Z,5.12
2019-04-12T13:11:32.919Z,4.96
2019-04-12T13:12:32.787Z,4.88
2019-04-12T13:13:32.655Z,4.94
2019-04-12T13:14:32.525Z,4.96
2019-04-12T13:15:32.399Z,4.96
2019-04-12T13:16:32.271Z,4.86